createdAt,value
2023-03-22T00:02:06.732Z,79.00
2023-03-22T00:04:33.646Z,79.00
2023-03-22T00:07:00.610Z,79.20
2023-03-22T00:09:27.214Z,79.60
2023-03-22T00:11:54.252Z,80.20
2023-03-22T00:14:21.116Z,79.80
2023-03-22T00:16:49.245Z,80.00
2023-03-22T00:19:17.320Z,80.70
2023-03-22T00:21:44.630Z,80.60
2023-03-22T00:24:11.312Z,80.60
2023-03-22T00:26:38.018Z,80.30
2023-03-22T00:29:05.041Z,80.50
2023-03-22T00:31:31.980Z,80.10
2023-03-22T00:33:58.655Z,80.20
2023-03-22T00:36:25.881Z,80.80
2023-03-22T00:38:54.886Z,80.80
2023-03-22T00:41:22.970Z,80.90
2023-03-22T00:43:51.576Z,81.10
2023-03-22T00:46:20.399Z,80.90
2023-03-22T00:48:47.542Z,82.10
2023-03-22T00:51:15.138Z,82.40
2023-03-22T00:53:43.491Z,82.40
2023-03-22T00:56:16.143Z,82.30
2023-03-22T00:58:43.525Z,82.30
2023-03-22T01:01:14.212Z,82.70
2023-03-22T01:03:43.497Z,82.50
2023-03-22T01:06:11.176Z,83.20
2023-03-22T01:08:39.053Z,82.90
2023-03-22T01:11:07.247Z,83.40
2023-03-22T01:13:34.192Z,83.40
2023-03-22T01:16:01.176Z,83.20
2023-03-22T01:18:27.842Z,83.60
2023-03-22T01:20:54.728Z,83.50
2023-03-22T01:23:21.366Z,84.20
2023-03-22T01:25:48.025Z,84.80
2023-03-22T01:28:14.726Z,84.80
2023-03-22T01:30:42.548Z,84.10
2023-03-22T01:33:10.844Z,83.70
2023-03-22T01:35:37.539Z,84.00
2023-03-22T01:38:04.605Z,83.80
2023-03-22T01:40:31.283Z,83.80
2023-03-22T01:42:58.139Z,83.70
2023-03-22T01:45:24.785Z,83.60
2023-03-22T01:47:59.488Z,83.30
2023-03-22T01:50:26.873Z,83.20
2023-03-22T01:52:57.911Z,82.80
2023-03-22T01:55:26.097Z,83.00
2023-03-22T01:57:53.335Z,82.70
2023-03-22T02:00:20.578Z,82.90
2023-03-22T02:02:48.882Z,82.80
2023-03-22T02:05:16.027Z,83.00
2023-03-22T02:07:43.573Z,82.80
2023-03-22T02:10:15.885Z,82.90
2023-03-22T02:13:02.214Z,83.30
2023-03-22T02:15:49.119Z,83.40
2023-03-22T02:18:19.092Z,83.50
2023-03-22T02:21:04.554Z,83.40
2023-03-22T02:23:40.733Z,83.00
2023-03-22T02:26:25.134Z,83.20
2023-03-22T02:28:54.842Z,83.20
2023-03-22T02:31:21.570Z,83.10
2023-03-22T02:33:54.000Z,83.20
2023-03-22T02:36:23.562Z,82.80
2023-03-22T02:38:59.414Z,82.60
2023-03-22T02:41:42.960Z,82.30
2023-03-22T02:44:18.890Z,82.00
2023-03-22T02:46:50.108Z,81.90
2023-03-22T02:49:35.453Z,81.90
2023-03-22T02:52:02.326Z,81.90
2023-03-22T02:54:35.314Z,82.10
2023-03-22T02:57:08.743Z,81.80
2023-03-22T02:59:38.378Z,81.60
2023-03-22T03:02:06.086Z,81.50
2023-03-22T03:04:35.676Z,81.10
2023-03-22T03:07:05.679Z,81.10
2023-03-22T03:09:33.265Z,80.70
2023-03-22T03:11:59.845Z,81.30
2023-03-22T03:14:28.356Z,81.00
2023-03-22T03:17:10.472Z,80.60
2023-03-22T03:19:57.603Z,81.00
2023-03-22T03:22:51.899Z,81.00
2023-03-22T03:25:30.975Z,81.30
2023-03-22T03:28:02.512Z,81.10
2023-03-22T03:30:56.162Z,81.60
2023-03-22T03:33:26.278Z,81.70
2023-03-22T03:35:59.929Z,81.60
2023-03-22T03:38:29.205Z,82.10
2023-03-22T03:40:59.015Z,81.70
2023-03-22T03:43:25.675Z,82.00
2023-03-22T03:45:52.677Z,81.90
2023-03-22T03:48:21.490Z,81.60
2023-03-22T03:50:51.160Z,81.30
2023-03-22T03:53:18.069Z,81.30
2023-03-22T03:55:44.715Z,81.30
2023-03-22T03:58:11.639Z,80.90
2023-03-22T04:00:40.932Z,80.80
2023-03-22T04:03:07.807Z,81.10
2023-03-22T04:05:34.453Z,80.90
2023-03-22T04:08:01.085Z,81.00
2023-03-22T04:10:27.913Z,81.20
2023-03-22T04:12:54.552Z,80.90
2023-03-22T04:15:21.533Z,81.00
2023-03-22T04:17:48.302Z,81.30
2023-03-22T04:20:15.256Z,80.90
2023-03-22T04:22:42.048Z,81.00
2023-03-22T04:25:12.919Z,81.20
2023-03-22T04:27:41.059Z,81.50
2023-03-22T04:30:12.347Z,81.80
2023-03-22T04:32:40.397Z,81.80
2023-03-22T04:35:09.206Z,81.70
2023-03-22T04:37:36.446Z,81.80
2023-03-22T04:40:07.539Z,81.80
2023-03-22T04:42:36.019Z,82.40
2023-03-22T04:45:04.219Z,82.60
2023-03-22T04:47:31.433Z,82.60
2023-03-22T04:49:58.109Z,82.90
2023-03-22T04:52:26.619Z,83.00
2023-03-22T04:54:53.262Z,83.00
2023-03-22T04:57:20.118Z,83.90
2023-03-22T04:59:46.804Z,83.90
2023-03-22T05:02:13.385Z,84.00
2023-03-22T05:04:40.197Z,83.70
2023-03-22T05:07:09.337Z,83.80
2023-03-22T05:09:36.314Z,83.80
2023-03-22T05:12:02.972Z,83.90
2023-03-22T05:14:29.567Z,84.00
2023-03-22T05:16:56.181Z,84.20
2023-03-22T05:19:24.392Z,84.00
2023-03-22T05:21:58.083Z,83.90
2023-03-22T05:24:25.266Z,84.00
2023-03-22T05:26:54.021Z,84.40
2023-03-22T05:29:21.596Z,84.60
2023-03-22T05:31:48.471Z,84.70
2023-03-22T05:34:15.599Z,85.00
2023-03-22T05:36:42.182Z,84.80
2023-03-22T05:39:09.091Z,84.70
2023-03-22T05:41:36.779Z,84.90
2023-03-22T05:44:04.616Z,85.10
2023-03-22T05:46:31.288Z,84.80
2023-03-22T05:48:58.214Z,85.00
2023-03-22T05:51:25.515Z,84.90
2023-03-22T05:53:53.547Z,85.00
2023-03-22T05:56:24.298Z,84.80
2023-03-22T05:58:51.853Z,84.90
2023-03-22T06:01:20.527Z,85.00
2023-03-22T06:03:48.542Z,85.30
2023-03-22T06:06:15.989Z,85.20
2023-03-22T06:08:42.705Z,85.00
2023-03-22T06:11:09.718Z,85.00
2023-03-22T06:13:37.608Z,85.00
2023-03-22T06:16:05.079Z,85.10
2023-03-22T06:18:31.978Z,84.60
2023-03-22T06:20:58.937Z,84.60
2023-03-22T06:23:27.416Z,84.90
2023-03-22T06:25:54.212Z,84.30
2023-03-22T06:28:21.213Z,84.10
2023-03-22T06:30:48.016Z,84.00
2023-03-22T06:33:14.904Z,83.80
2023-03-22T06:35:41.574Z,83.10
2023-03-22T06:38:09.650Z,83.20
2023-03-22T06:40:38.578Z,83.30
2023-03-22T06:43:07.190Z,83.20
2023-03-22T06:45:34.151Z,82.80
2023-03-22T06:48:01.163Z,82.30
2023-03-22T06:50:29.079Z,81.60
2023-03-22T06:52:56.322Z,81.10
2023-03-22T06:55:24.512Z,80.80
2023-03-22T06:57:51.472Z,80.70
2023-03-22T07:00:18.408Z,80.20
2023-03-22T07:02:46.470Z,79.60
2023-03-22T07:05:13.094Z,79.20
2023-03-22T07:07:39.806Z,78.50
2023-03-22T07:10:07.868Z,78.00
2023-03-22T07:12:35.068Z,77.10
2023-03-22T07:15:01.942Z,76.20
2023-03-22T07:17:28.623Z,75.60
2023-03-22T07:19:55.337Z,75.30
2023-03-22T07:22:22.353Z,74.90
2023-03-22T07:24:57.033Z,74.10
2023-03-22T07:27:25.294Z,73.30
2023-03-22T07:29:51.951Z,72.90
2023-03-22T07:32:18.691Z,72.30
2023-03-22T07:34:45.998Z,71.50
2023-03-22T07:37:12.666Z,71.00
2023-03-22T07:39:39.767Z,69.90
2023-03-22T07:42:06.821Z,69.10
2023-03-22T07:44:33.758Z,68.30
2023-03-22T07:47:00.770Z,67.50
2023-03-22T07:49:27.902Z,66.30
2023-03-22T07:51:54.716Z,66.40
2023-03-22T07:54:33.013Z,65.00
2023-03-22T07:57:01.758Z,65.20
2023-03-22T07:59:28.663Z,64.40
2023-03-22T08:01:55.596Z,64.10
2023-03-22T08:04:22.644Z,63.80
2023-03-22T08:06:50.125Z,62.70
2023-03-22T08:09:17.078Z,63.00
2023-03-22T08:11:44.921Z,62.70
2023-03-22T08:14:11.777Z,62.00
2023-03-22T08:16:41.593Z,61.20
2023-03-22T08:19:08.800Z,61.10
2023-03-22T08:21:37.376Z,60.60
2023-03-22T08:24:04.770Z,60.90
2023-03-22T08:26:31.420Z,60.40
2023-03-22T08:28:58.454Z,59.40
2023-03-22T08:31:26.511Z,59.40
2023-03-22T08:33:53.528Z,59.30
2023-03-22T08:36:22.886Z,58.60
2023-03-22T08:38:50.026Z,57.90
2023-03-22T08:41:16.656Z,57.60
2023-03-22T08:43:43.481Z,57.40
2023-03-22T08:46:10.214Z,57.40
2023-03-22T08:48:40.123Z,57.30
2023-03-22T08:51:07.128Z,57.60
2023-03-22T08:53:33.961Z,57.40
2023-03-22T08:56:02.188Z,57.20
2023-03-22T08:58:29.351Z,56.30
2023-03-22T09:00:56.074Z,55.10
2023-03-22T09:03:24.854Z,55.50
2023-03-22T09:05:51.656Z,55.20
2023-03-22T09:08:20.078Z,55.80
2023-03-22T09:10:51.227Z,55.80
2023-03-22T09:13:18.506Z,55.10
2023-03-22T09:15:45.598Z,54.60
2023-03-22T09:18:12.350Z,54.40
2023-03-22T09:20:39.572Z,54.80
2023-03-22T09:23:06.740Z,53.30
2023-03-22T09:25:33.491Z,54.20
2023-03-22T09:28:00.333Z,54.10
2023-03-22T09:30:27.427Z,51.60
2023-03-22T09:32:54.457Z,53.00
2023-03-22T09:35:21.783Z,52.40
2023-03-22T09:37:49.636Z,52.30
2023-03-22T09:40:17.644Z,50.80
2023-03-22T09:42:46.576Z,50.60
2023-03-22T09:45:22.894Z,51.90
2023-03-22T09:47:52.729Z,51.60
2023-03-22T09:50:21.107Z,51.80
2023-03-22T09:52:48.517Z,50.20
2023-03-22T09:55:20.334Z,51.20
2023-03-22T09:57:54.523Z,51.00
2023-03-22T10:00:47.768Z,50.10
2023-03-22T10:03:21.059Z,50.90
2023-03-22T10:05:57.353Z,50.90
2023-03-22T10:08:24.130Z,50.10
2023-03-22T10:10:52.477Z,49.30
2023-03-22T10:13:19.946Z,48.80
2023-03-22T10:15:46.643Z,49.60
2023-03-22T10:18:17.574Z,49.20
2023-03-22T10:20:48.513Z,49.40
2023-03-22T10:23:20.179Z,46.30
2023-03-22T10:25:47.104Z,47.40
2023-03-22T10:28:19.769Z,49.00
2023-03-22T10:30:51.884Z,48.40
2023-03-22T10:33:24.745Z,49.00
2023-03-22T10:35:52.590Z,47.60
2023-03-22T10:38:30.005Z,48.40
2023-03-22T10:40:59.621Z,47.40
2023-03-22T10:43:35.108Z,47.80
2023-03-22T10:46:04.117Z,48.30
2023-03-22T10:48:36.199Z,48.10
2023-03-22T10:51:04.651Z,47.10
2023-03-22T10:53:37.360Z,47.10
2023-03-22T10:56:04.557Z,44.80
2023-03-22T10:58:32.127Z,46.60
2023-03-22T11:01:02.910Z,46.10
2023-03-22T11:03:36.553Z,44.90
2023-03-22T11:06:06.636Z,45.20
2023-03-22T11:08:52.861Z,44.50
2023-03-22T11:11:24.789Z,42.70
2023-03-22T11:14:20.914Z,44.40
2023-03-22T11:16:59.050Z,44.00
2023-03-22T11:19:33.328Z,45.50
2023-03-22T11:22:00.721Z,46.50
2023-03-22T11:24:30.678Z,43.70
2023-03-22T11:27:19.633Z,45.00
2023-03-22T11:29:47.834Z,46.00
2023-03-22T11:32:26.180Z,45.50
2023-03-22T11:35:04.491Z,44.80
2023-03-22T11:37:31.145Z,42.80
2023-03-22T11:40:00.174Z,43.60
2023-03-22T11:42:27.031Z,43.80
2023-03-22T11:44:55.048Z,44.20
2023-03-22T11:47:22.075Z,43.60
2023-03-22T11:49:50.231Z,43.60
2023-03-22T11:52:23.296Z,41.50
2023-03-22T11:54:52.758Z,41.60
2023-03-22T11:57:22.119Z,41.90
2023-03-22T11:59:48.736Z,42.30
2023-03-22T12:02:29.997Z,43.60
2023-03-22T12:05:03.361Z,44.50
2023-03-22T12:07:31.591Z,40.60
2023-03-22T12:10:00.620Z,41.50
2023-03-22T12:12:29.907Z,41.20
2023-03-22T12:15:09.938Z,41.70
2023-03-22T12:17:40.525Z,42.10
2023-03-22T12:20:12.974Z,43.10
2023-03-22T12:22:43.197Z,40.50
2023-03-22T12:25:12.457Z,40.30
2023-03-22T12:27:41.655Z,39.00
2023-03-22T12:30:28.850Z,40.70
2023-03-22T12:33:01.874Z,39.00
2023-03-22T12:35:31.135Z,39.50
2023-03-22T12:38:06.012Z,40.20
2023-03-22T12:40:34.404Z,42.00
2023-03-22T12:43:17.307Z,42.00
2023-03-22T12:45:47.772Z,39.40
2023-03-22T12:48:18.937Z,40.40
2023-03-22T12:50:54.169Z,39.50
2023-03-22T12:53:21.293Z,39.30
2023-03-22T12:55:48.542Z,39.80
2023-03-22T12:58:19.686Z,39.50
2023-03-22T13:00:52.805Z,39.60
2023-03-22T13:03:22.520Z,41.40
2023-03-22T13:05:50.276Z,40.30
2023-03-22T13:08:21.561Z,41.50
2023-03-22T13:11:01.294Z,39.90
2023-03-22T13:13:28.222Z,40.20
2023-03-22T13:15:58.201Z,39.00
2023-03-22T13:18:37.941Z,39.80
2023-03-22T13:21:15.605Z,39.50
2023-03-22T13:23:56.525Z,39.70
2023-03-22T13:26:28.311Z,38.80
2023-03-22T13:28:57.812Z,39.60
2023-03-22T13:31:36.090Z,39.60
2023-03-22T13:34:04.365Z,40.90
2023-03-22T13:36:32.041Z,39.20
2023-03-22T13:39:00.188Z,40.40
2023-03-22T13:41:28.164Z,39.70
2023-03-22T13:43:55.975Z,39.30
2023-03-22T13:46:22.767Z,40.70
2023-03-22T13:48:52.841Z,40.40
2023-03-22T13:51:22.855Z,40.00
2023-03-22T13:54:03.617Z,40.50
2023-03-22T13:56:43.316Z,39.30
2023-03-22T13:59:11.851Z,39.60
2023-03-22T14:01:47.490Z,40.80
2023-03-22T14:04:18.744Z,39.40
2023-03-22T14:06:57.616Z,39.80
2023-03-22T14:09:28.252Z,39.70
2023-03-22T14:12:04.513Z,38.60
2023-03-22T14:14:33.006Z,40.80
2023-03-22T14:16:59.587Z,40.00
2023-03-22T14:19:29.154Z,39.90
